Terminal Aerodrome Forecast
Issued by NWS

Home | Current Version | Previous Version | Text Only | Print | Product List | Glossary On
Versions: 1 2 3 4 5 6 7 8 9 10 11 12 13 14 15 16 17 18 19 20 21 22 23 24 25 26
000
FTUS46 KOTX 272339
TAFMWH
TAF
KMWH 272339Z 2800/2824 24004KT P6SM SCT180
     FM280400 22011KT P6SM VCSH BKN080 OVC100
     FM280600 22012G18KT P6SM -SHRA BKN050 OVC070
     FM280900 21015G22KT P6SM SCT070
     FM281400 24020G30KT P6SM SCT090
     FM282100 26014G22KT P6SM SKC=

USA.gov is the U.S. government's official web portal to all federal, state and local government web resources and services.